createdAt,value
2023-04-10T00:01:17.562Z,56.54
2023-04-10T00:03:44.872Z,56.10
2023-04-10T00:06:12.025Z,55.60
2023-04-10T00:08:39.085Z,55.47
2023-04-10T00:11:06.284Z,56.72
2023-04-10T00:13:33.270Z,55.96
2023-04-10T00:16:00.527Z,56.53
2023-04-10T00:18:27.646Z,57.25
2023-04-10T00:20:55.163Z,56.77
2023-04-10T00:23:22.116Z,57.37
2023-04-10T00:25:49.245Z,57.31
2023-04-10T00:28:17.308Z,57.76
2023-04-10T00:30:44.331Z,57.94
2023-04-10T00:33:11.491Z,58.25
2023-04-10T00:35:38.590Z,57.79
2023-04-10T00:38:05.744Z,58.11
2023-04-10T00:40:32.909Z,57.98
2023-04-10T00:43:00.620Z,57.68
2023-04-10T00:45:28.097Z,57.88
2023-04-10T00:47:56.035Z,58.29
2023-04-10T00:50:23.738Z,58.17
2023-04-10T00:52:51.693Z,58.40
2023-04-10T00:55:19.074Z,58.66
2023-04-10T00:57:47.234Z,58.09
2023-04-10T01:00:16.010Z,58.23
2023-04-10T01:02:43.492Z,58.53
2023-04-10T01:05:13.086Z,58.96
2023-04-10T01:08:18.661Z,58.80
2023-04-10T01:11:19.433Z,58.54
2023-04-10T01:13:57.709Z,58.85
2023-04-10T01:16:36.559Z,58.83
2023-04-10T01:19:22.921Z,58.96
2023-04-10T01:21:53.718Z,59.68
2023-04-10T01:24:29.521Z,58.72
2023-04-10T01:27:37.262Z,59.50
2023-04-10T01:30:06.878Z,59.34
2023-04-10T01:32:37.204Z,59.08
2023-04-10T01:35:08.107Z,59.07
2023-04-10T01:37:39.141Z,59.18
2023-04-10T01:40:11.632Z,58.83
2023-04-10T01:42:51.735Z,58.94
2023-04-10T01:45:23.816Z,59.29
2023-04-10T01:47:53.079Z,59.25
2023-04-10T01:50:25.051Z,59.63
2023-04-10T01:52:56.946Z,59.23
2023-04-10T01:55:27.771Z,59.18
2023-04-10T01:58:01.604Z,59.31
2023-04-10T02:00:29.521Z,59.21
2023-04-10T02:02:58.743Z,59.15
2023-04-10T02:05:36.650Z,58.81
2023-04-10T02:08:16.529Z,58.83
2023-04-10T02:11:04.467Z,58.70
2023-04-10T02:13:36.270Z,58.75
2023-04-10T02:16:08.527Z,58.79
2023-04-10T02:18:37.420Z,59.30
2023-04-10T02:21:06.263Z,59.19
2023-04-10T02:23:33.933Z,59.40
2023-04-10T02:26:07.954Z,59.01
2023-04-10T02:28:38.085Z,59.56
2023-04-10T02:31:07.734Z,59.54
2023-04-10T02:33:34.890Z,59.65
2023-04-10T02:36:02.261Z,59.25
2023-04-10T02:38:29.289Z,59.00
2023-04-10T02:40:56.361Z,59.74
2023-04-10T02:43:23.484Z,59.82
2023-04-10T02:45:51.314Z,59.66
2023-04-10T02:48:25.820Z,59.35
2023-04-10T02:50:59.914Z,60.25
2023-04-10T02:53:29.171Z,60.25
2023-04-10T02:55:59.284Z,59.32
2023-04-10T02:58:30.551Z,59.28
2023-04-10T03:00:58.909Z,59.43
2023-04-10T03:03:40.106Z,59.11
2023-04-10T03:06:09.644Z,58.84
2023-04-10T03:08:37.842Z,59.06
2023-04-10T03:11:06.533Z,59.71
2023-04-10T03:13:33.576Z,59.44
2023-04-10T03:16:01.121Z,59.70
2023-04-10T03:18:28.224Z,59.73
2023-04-10T03:20:56.414Z,59.83
2023-04-10T03:23:23.523Z,60.02
2023-04-10T03:25:55.267Z,59.88
2023-04-10T03:28:26.281Z,60.32
2023-04-10T03:30:53.353Z,60.05
2023-04-10T03:33:20.383Z,60.07
2023-04-10T03:35:47.859Z,60.18
2023-04-10T03:38:15.057Z,60.27
2023-04-10T03:40:42.096Z,60.36
2023-04-10T03:43:11.054Z,60.54
2023-04-10T03:45:38.629Z,60.71
2023-04-10T03:48:07.267Z,60.41
2023-04-10T03:50:41.625Z,60.68
2023-04-10T03:53:08.868Z,60.67
2023-04-10T03:55:36.956Z,60.73
2023-04-10T03:58:05.835Z,60.47
2023-04-10T04:00:33.764Z,60.87
2023-04-10T04:03:10.293Z,61.76
2023-04-10T04:06:01.304Z,61.41
2023-04-10T04:08:38.714Z,61.66
2023-04-10T04:11:08.731Z,61.79
2023-04-10T04:13:51.917Z,61.23
2023-04-10T04:16:37.476Z,60.78
2023-04-10T04:19:27.731Z,61.35
2023-04-10T04:22:12.288Z,61.94
2023-04-10T04:24:58.388Z,61.74
2023-04-10T04:28:03.739Z,61.87
2023-04-10T04:30:33.448Z,61.93
2023-04-10T04:33:17.722Z,62.03
2023-04-10T04:36:00.110Z,62.15
2023-04-10T04:38:58.948Z,61.95
2023-04-10T04:41:43.435Z,62.25
2023-04-10T04:44:28.664Z,61.94
2023-04-10T04:47:04.249Z,62.24
2023-04-10T04:49:54.188Z,62.07
2023-04-10T04:52:39.721Z,61.96
2023-04-10T04:55:32.701Z,62.11
2023-04-10T04:58:21.304Z,62.25
2023-04-10T05:00:57.369Z,62.25
2023-04-10T05:03:31.341Z,62.58
2023-04-10T05:06:26.264Z,62.83
2023-04-10T05:09:22.674Z,62.61
2023-04-10T05:12:21.822Z,63.09
2023-04-10T05:14:56.581Z,63.03
2023-04-10T05:17:40.945Z,63.73
2023-04-10T05:20:37.158Z,64.36
2023-04-10T05:23:33.544Z,64.60
2023-04-10T05:26:20.977Z,64.37
2023-04-10T05:28:53.033Z,64.47
2023-04-10T05:31:46.804Z,64.52
2023-04-10T05:34:21.791Z,64.06
2023-04-10T05:37:09.438Z,63.99
2023-04-10T05:39:44.065Z,64.81
2023-04-10T05:42:23.385Z,64.43
2023-04-10T05:45:15.263Z,65.22
2023-04-10T05:48:05.221Z,65.18
2023-04-10T05:50:52.962Z,65.31
2023-04-10T05:53:42.141Z,65.48
2023-04-10T05:56:27.453Z,65.82
2023-04-10T05:59:13.567Z,66.29
2023-04-10T06:01:59.706Z,66.42
2023-04-10T06:04:28.678Z,66.68
2023-04-10T06:06:58.271Z,66.75
2023-04-10T06:09:25.804Z,66.79
2023-04-10T06:11:53.612Z,67.10
2023-04-10T06:14:23.287Z,66.61
2023-04-10T06:16:50.732Z,67.15
2023-04-10T06:19:17.995Z,66.88
2023-04-10T06:21:45.589Z,67.31
2023-04-10T06:24:13.937Z,66.90
2023-04-10T06:26:41.168Z,67.27
2023-04-10T06:29:09.888Z,66.91
2023-04-10T06:31:37.338Z,67.50
2023-04-10T06:34:04.357Z,67.11
2023-04-10T06:36:33.144Z,66.84
2023-04-10T06:39:04.303Z,66.52
2023-04-10T06:41:31.339Z,67.05
2023-04-10T06:44:07.557Z,66.69
2023-04-10T06:46:34.650Z,66.28
2023-04-10T06:49:02.057Z,65.96
2023-04-10T06:51:29.332Z,66.06
2023-04-10T06:53:56.309Z,65.72
2023-04-10T06:56:23.334Z,66.13
2023-04-10T06:58:51.378Z,65.90
2023-04-10T07:01:19.757Z,65.57
2023-04-10T07:03:47.886Z,65.34
2023-04-10T07:06:15.282Z,64.19
2023-04-10T07:08:42.543Z,64.52
2023-04-10T07:11:09.729Z,64.77
2023-04-10T07:13:39.158Z,64.64
2023-04-10T07:16:08.585Z,64.83
2023-04-10T07:18:35.982Z,64.17
2023-04-10T07:21:03.855Z,63.78
2023-04-10T07:23:31.242Z,63.41
2023-04-10T07:25:58.398Z,62.75
2023-04-10T07:28:25.472Z,61.58
2023-04-10T07:30:55.594Z,61.27
2023-04-10T07:33:22.731Z,60.99
2023-04-10T07:35:49.797Z,60.69
2023-04-10T07:38:18.948Z,59.62
2023-04-10T07:40:45.986Z,60.16
2023-04-10T07:43:13.180Z,60.01
2023-04-10T07:45:41.303Z,59.06
2023-04-10T07:48:08.451Z,58.57
2023-04-10T07:50:36.332Z,58.35
2023-04-10T07:53:07.968Z,58.08
2023-04-10T07:55:44.444Z,58.21
2023-04-10T07:58:12.958Z,58.80
2023-04-10T08:00:40.999Z,57.98
2023-04-10T08:03:08.651Z,57.85
2023-04-10T08:05:36.456Z,57.51
2023-04-10T08:08:03.467Z,57.39
2023-04-10T08:10:30.860Z,56.82
2023-04-10T08:12:57.908Z,56.58
2023-04-10T08:15:25.053Z,56.31
2023-04-10T08:17:52.319Z,55.12
2023-04-10T08:20:20.086Z,55.90
2023-04-10T08:22:47.376Z,55.78
2023-04-10T08:25:15.109Z,55.32
2023-04-10T08:27:42.474Z,54.30
2023-04-10T08:30:10.344Z,54.20
2023-04-10T08:32:38.887Z,54.25
2023-04-10T08:35:06.757Z,54.33
2023-04-10T08:37:33.752Z,52.71
2023-04-10T08:40:00.682Z,52.16
2023-04-10T08:42:28.072Z,52.48
2023-04-10T08:44:55.714Z,52.00
2023-04-10T08:47:28.332Z,51.90
2023-04-10T08:49:58.157Z,51.99
2023-04-10T08:52:29.339Z,51.95
2023-04-10T08:55:00.022Z,52.47
2023-04-10T08:57:28.102Z,53.31
2023-04-10T08:59:55.812Z,52.43
2023-04-10T09:02:25.558Z,52.13
2023-04-10T09:04:56.361Z,51.56
2023-04-10T09:07:27.134Z,51.02
2023-04-10T09:09:54.306Z,50.77
2023-04-10T09:12:21.529Z,49.42
2023-04-10T09:14:53.335Z,48.99
2023-04-10T09:17:23.607Z,49.92
2023-04-10T09:19:54.485Z,48.55
2023-04-10T09:22:36.748Z,47.87
2023-04-10T09:25:05.653Z,47.71
2023-04-10T09:27:35.739Z,47.33
2023-04-10T09:30:04.832Z,47.25
2023-04-10T09:32:40.905Z,46.59
2023-04-10T09:35:11.178Z,47.56
2023-04-10T09:37:40.957Z,46.92
2023-04-10T09:40:22.965Z,46.01
2023-04-10T09:42:50.833Z,46.18
2023-04-10T09:45:22.574Z,47.36
2023-04-10T09:48:07.886Z,46.88
2023-04-10T09:50:41.180Z,46.16
2023-04-10T09:53:12.033Z,46.78
2023-04-10T09:55:41.349Z,46.73
2023-04-10T09:58:09.943Z,46.58
2023-04-10T10:00:44.688Z,45.57
2023-04-10T10:03:18.020Z,45.76
2023-04-10T10:05:51.171Z,45.22
2023-04-10T10:08:18.774Z,45.45
2023-04-10T10:10:55.104Z,45.96
2023-04-10T10:13:31.390Z,46.17
2023-04-10T10:16:13.402Z,46.09
2023-04-10T10:19:21.102Z,45.62
2023-04-10T10:21:48.930Z,45.47
2023-04-10T10:24:21.760Z,44.76
2023-04-10T10:26:50.528Z,45.63
2023-04-10T10:29:18.851Z,46.19
2023-04-10T10:31:47.985Z,45.47
2023-04-10T10:34:16.601Z,45.58
2023-04-10T10:36:43.751Z,45.22
2023-04-10T10:39:33.331Z,45.48
2023-04-10T10:42:24.309Z,45.02
2023-04-10T10:45:12.385Z,44.61
2023-04-10T10:47:46.074Z,43.92
2023-04-10T10:50:16.622Z,43.83
2023-04-10T10:52:56.043Z,43.22
2023-04-10T10:55:24.112Z,43.82
2023-04-10T10:58:07.802Z,44.60
2023-04-10T11:00:50.914Z,44.24
2023-04-10T11:03:18.360Z,44.23
2023-04-10T11:05:56.292Z,43.88
2023-04-10T11:08:47.683Z,43.95
2023-04-10T11:11:20.296Z,43.91
2023-04-10T11:13:51.827Z,43.91
2023-04-10T11:16:21.725Z,43.89
2023-04-10T11:19:13.204Z,43.43
2023-04-10T11:22:00.438Z,43.40
2023-04-10T11:24:28.470Z,43.10
2023-04-10T11:26:56.313Z,43.01
2023-04-10T11:29:29.412Z,42.76
2023-04-10T11:32:02.371Z,42.58
2023-04-10T11:34:31.936Z,41.59
2023-04-10T11:37:03.046Z,42.28
2023-04-10T11:39:31.579Z,42.40
2023-04-10T11:41:58.712Z,42.60
2023-04-10T11:44:25.648Z,42.76
2023-04-10T11:46:53.494Z,41.95
2023-04-10T11:49:26.546Z,42.24
2023-04-10T11:51:53.973Z,41.86
2023-04-10T11:54:29.685Z,40.87
2023-04-10T11:57:03.118Z,41.50
2023-04-10T11:59:32.897Z,40.95
2023-04-10T12:02:09.990Z,41.15
2023-04-10T12:04:37.975Z,41.00
2023-04-10T12:07:05.109Z,40.76
2023-04-10T12:09:33.404Z,40.84
2023-04-10T12:12:10.081Z,41.33
2023-04-10T12:14:40.057Z,40.70
2023-04-10T12:17:10.452Z,39.94
2023-04-10T12:19:39.365Z,40.22
2023-04-10T12:22:06.811Z,40.58
2023-04-10T12:25:03.555Z,40.33
2023-04-10T12:27:30.752Z,39.87
2023-04-10T12:29:59.032Z,39.94
2023-04-10T12:32:27.766Z,38.76
2023-04-10T12:35:03.001Z,38.73
2023-04-10T12:37:48.553Z,39.34
2023-04-10T12:40:15.790Z,39.53
2023-04-10T12:42:43.368Z,39.54
2023-04-10T12:45:13.922Z,39.44
2023-04-10T12:47:51.946Z,39.38
2023-04-10T12:50:21.089Z,38.84
2023-04-10T12:53:09.191Z,40.13
2023-04-10T12:55:36.199Z,39.40
2023-04-10T12:58:18.325Z,40.14
2023-04-10T13:00:47.070Z,40.49
2023-04-10T13:03:14.215Z,39.60
2023-04-10T13:05:41.345Z,38.88
2023-04-10T13:08:08.572Z,39.07
2023-04-10T13:10:38.375Z,38.76
2023-04-10T13:13:07.322Z,38.36
2023-04-10T13:15:35.087Z,37.93
2023-04-10T13:18:05.158Z,38.60
2023-04-10T13:20:36.301Z,37.44
2023-04-10T13:23:04.366Z,36.70
2023-04-10T13:25:39.946Z,37.71
2023-04-10T13:28:15.854Z,38.02
2023-04-10T13:30:43.137Z,38.30
2023-04-10T13:33:10.461Z,38.61
2023-04-10T13:35:41.011Z,37.46
2023-04-10T13:38:09.598Z,37.64
2023-04-10T13:40:36.821Z,37.58
2023-04-10T13:43:03.974Z,37.30
2023-04-10T13:45:31.043Z,37.74
2023-04-10T13:47:58.094Z,37.74
2023-04-10T13:50:25.445Z,38.21
2023-04-10T13:52:53.857Z,38.11
2023-04-10T13:55:24.772Z,37.52
2023-04-10T13:57:52.391Z,37.82
2023-04-10T14:00:19.992Z,36.90
2023-04-10T14:02:47.252Z,37.19
2023-04-10T14:05:14.372Z,38.08
2023-04-10T14:07:41.428Z,36.69
2023-04-10T14:10:09.949Z,37.09
2023-04-10T14:12:38.050Z,36.84
2023-04-10T14:15:05.995Z,36.98
2023-04-10T14:17:32.960Z,36.98
2023-04-10T14:20:00.220Z,36.07
2023-04-10T14:22:27.846Z,35.53
2023-04-10T14:25:05.278Z,35.25
2023-04-10T14:27:39.197Z,35.25
2023-04-10T14:30:22.232Z,35.09
2023-04-10T14:32:49.319Z,35.14
2023-04-10T14:35:17.131Z,35.45
2023-04-10T14:37:44.389Z,35.63
2023-04-10T14:40:11.753Z,35.65
2023-04-10T14:42:38.763Z,35.69
2023-04-10T14:45:06.528Z,35.99
2023-04-10T14:47:33.757Z,36.04
2023-04-10T14:50:00.786Z,35.88
2023-04-10T14:52:27.937Z,36.02
2023-04-10T14:54:54.904Z,36.04
2023-04-10T14:57:22.229Z,35.10
2023-04-10T14:59:56.398Z,34.77
2023-04-10T15:02:23.646Z,35.08
2023-04-10T15:04:53.285Z,35.63
2023-04-10T15:07:20.512Z,34.97
2023-04-10T15:09:48.011Z,35.16
2023-04-10T15:12:15.366Z,35.70
2023-04-10T15:14:42.451Z,35.91
2023-04-10T15:17:09.711Z,35.74
2023-04-10T15:19:36.758Z,35.90
2023-04-10T15:22:03.751Z,35.15
2023-04-10T15:24:39.904Z,35.62
2023-04-10T15:27:10.586Z,34.60
2023-04-10T15:29:40.054Z,35.26
2023-04-10T15:32:07.235Z,35.29
2023-04-10T15:34:34.406Z,35.94
2023-04-10T15:37:01.554Z,35.84
2023-04-10T15:39:30.891Z,36.14
2023-04-10T15:42:00.241Z,35.96
2023-04-10T15:44:27.274Z,35.99
2023-04-10T15:46:54.594Z,35.68
2023-04-10T15:49:33.948Z,35.36
2023-04-10T15:52:06.452Z,35.61
2023-04-10T15:54:34.731Z,36.05
2023-04-10T15:57:02.450Z,35.81
2023-04-10T15:59:30.196Z,35.29
2023-04-10T16:01:57.289Z,35.29
2023-04-10T16:04:24.882Z,34.89
2023-04-10T16:06:52.049Z,35.36
2023-04-10T16:09:25.690Z,34.80
2023-04-10T16:11:54.559Z,35.14
2023-04-10T16:14:22.684Z,35.10
2023-04-10T16:16:49.926Z,35.06
2023-04-10T16:19:17.180Z,35.29
2023-04-10T16:21:44.259Z,35.31
2023-04-10T16:24:11.853Z,35.79
2023-04-10T16:26:38.988Z,35.79
2023-04-10T16:29:06.571Z,35.18
2023-04-10T16:31:33.646Z,34.97
2023-04-10T16:34:01.356Z,35.11
2023-04-10T16:36:28.473Z,34.78
2023-04-10T16:38:55.696Z,35.35
2023-04-10T16:41:23.101Z,35.72
2023-04-10T16:43:50.304Z,36.11
2023-04-10T16:46:17.486Z,35.37
2023-04-10T16:48:44.546Z,35.47
2023-04-10T16:51:18.026Z,35.59
2023-04-10T16:53:45.406Z,36.35
2023-04-10T16:56:12.686Z,36.62
2023-04-10T16:58:42.048Z,36.52
2023-04-10T17:01:19.090Z,36.76
2023-04-10T17:03:48.339Z,37.02
2023-04-10T17:06:16.210Z,37.04
2023-04-10T17:08:58.221Z,36.46
2023-04-10T17:11:31.296Z,37.27
2023-04-10T17:13:58.365Z,37.07
2023-04-10T17:16:25.414Z,36.52
2023-04-10T17:18:52.603Z,37.00
2023-04-10T17:21:20.460Z,36.90
2023-04-10T17:23:48.897Z,37.52
2023-04-10T17:26:16.928Z,37.73
2023-04-10T17:28:46.272Z,37.65
2023-04-10T17:31:14.019Z,37.47
2023-04-10T17:33:44.317Z,38.28
2023-04-10T17:36:13.014Z,38.21
2023-04-10T17:38:41.802Z,38.13
2023-04-10T17:41:10.242Z,38.83
2023-04-10T17:43:37.351Z,38.96
2023-04-10T17:46:04.825Z,38.75
2023-04-10T17:48:32.467Z,38.83
2023-04-10T17:50:59.542Z,39.24
2023-04-10T17:53:26.753Z,39.79
2023-04-10T17:55:53.807Z,39.48
2023-04-10T17:58:21.397Z,40.38
2023-04-10T18:01:03.384Z,40.29
2023-04-10T18:03:32.168Z,40.63
2023-04-10T18:06:01.482Z,40.08
2023-04-10T18:08:28.716Z,39.86
2023-04-10T18:10:55.868Z,40.03
2023-04-10T18:13:22.859Z,40.03
2023-04-10T18:15:49.768Z,39.87
2023-04-10T18:18:16.747Z,39.58
2023-04-10T18:20:44.038Z,40.01
2023-04-10T18:23:11.237Z,40.04
2023-04-10T18:25:38.232Z,40.12
2023-04-10T18:28:14.463Z,40.06
2023-04-10T18:30:43.077Z,40.30
2023-04-10T18:33:11.506Z,41.01
2023-04-10T18:35:38.882Z,41.05
2023-04-10T18:38:06.283Z,41.31
2023-04-10T18:40:34.638Z,41.32
2023-04-10T18:43:01.528Z,41.34
2023-04-10T18:45:28.526Z,41.55
2023-04-10T18:47:55.625Z,41.69
2023-04-10T18:50:22.703Z,41.80
2023-04-10T18:52:49.688Z,41.54
2023-04-10T18:55:16.883Z,42.09
2023-04-10T18:57:44.017Z,42.63
2023-04-10T19:00:12.188Z,42.68
2023-04-10T19:02:39.966Z,42.50
2023-04-10T19:05:08.531Z,42.48
2023-04-10T19:07:35.495Z,42.02
2023-04-10T19:10:03.169Z,41.88
2023-04-10T19:12:30.432Z,42.92
2023-04-10T19:14:57.380Z,42.43
2023-04-10T19:17:24.978Z,43.35
2023-04-10T19:19:53.302Z,43.41
2023-04-10T19:22:20.526Z,43.42
2023-04-10T19:24:47.495Z,43.61
2023-04-10T19:27:14.486Z,43.49
2023-04-10T19:29:41.389Z,43.59
2023-04-10T19:32:09.979Z,43.69
2023-04-10T19:34:37.009Z,43.96
2023-04-10T19:37:03.923Z,44.38
2023-04-10T19:39:30.938Z,44.14
2023-04-10T19:41:58.324Z,44.07
2023-04-10T19:44:25.399Z,44.42
2023-04-10T19:46:52.547Z,44.69
2023-04-10T19:49:19.813Z,44.38
2023-04-10T19:51:46.820Z,45.16
2023-04-10T19:54:13.832Z,45.01
2023-04-10T19:56:41.034Z,45.61
2023-04-10T19:59:08.548Z,45.92
2023-04-10T20:01:35.789Z,46.29
2023-04-10T20:04:03.273Z,46.62
2023-04-10T20:06:31.882Z,47.52
2023-04-10T20:08:59.042Z,47.85
2023-04-10T20:11:30.535Z,47.32
2023-04-10T20:13:57.678Z,47.66
2023-04-10T20:16:26.581Z,48.14
2023-04-10T20:18:55.467Z,47.80
2023-04-10T20:21:22.806Z,47.99
2023-04-10T20:23:49.817Z,48.34
2023-04-10T20:26:17.508Z,47.83
2023-04-10T20:28:44.529Z,48.06
2023-04-10T20:31:12.159Z,48.59
2023-04-10T20:33:39.187Z,48.68
2023-04-10T20:36:06.553Z,47.99
2023-04-10T20:38:33.514Z,48.43
2023-04-10T20:41:00.450Z,48.10
2023-04-10T20:43:27.440Z,47.98
2023-04-10T20:45:54.422Z,48.30
2023-04-10T20:48:21.491Z,48.71
2023-04-10T20:50:51.947Z,48.98
2023-04-10T20:53:18.970Z,48.75
2023-04-10T20:55:46.029Z,48.53
2023-04-10T20:58:15.491Z,47.65
2023-04-10T21:00:43.256Z,48.17
2023-04-10T21:03:10.717Z,47.40
2023-04-10T21:05:41.874Z,48.41
2023-04-10T21:08:10.319Z,48.14
2023-04-10T21:10:44.033Z,48.64
2023-04-10T21:13:14.896Z,48.76
2023-04-10T21:15:43.081Z,48.91
2023-04-10T21:18:10.668Z,49.89
2023-04-10T21:20:38.020Z,49.80
2023-04-10T21:23:05.368Z,50.11
2023-04-10T21:25:33.648Z,50.47
2023-04-10T21:28:01.899Z,51.23
2023-04-10T21:30:29.437Z,50.74
2023-04-10T21:32:56.588Z,51.04
2023-04-10T21:35:27.209Z,50.99
2023-04-10T21:37:57.665Z,50.73
2023-04-10T21:40:26.238Z,50.74
2023-04-10T21:42:54.756Z,51.24
2023-04-10T21:45:22.905Z,51.17
2023-04-10T21:47:49.962Z,51.26
2023-04-10T21:50:17.124Z,51.19
2023-04-10T21:52:44.458Z,51.63
2023-04-10T21:55:11.575Z,51.70
2023-04-10T21:57:38.662Z,51.05
2023-04-10T22:00:08.581Z,52.09
2023-04-10T22:02:36.546Z,52.34
2023-04-10T22:05:03.810Z,52.69
2023-04-10T22:07:30.860Z,52.66
2023-04-10T22:09:58.322Z,52.17
2023-04-10T22:12:26.024Z,52.23
2023-04-10T22:14:53.023Z,52.67
2023-04-10T22:17:20.144Z,52.15
2023-04-10T22:19:47.126Z,52.05
2023-04-10T22:22:16.257Z,53.01
2023-04-10T22:24:43.264Z,52.64
2023-04-10T22:27:11.194Z,52.15
2023-04-10T22:29:38.180Z,52.80
2023-04-10T22:32:05.447Z,52.18
2023-04-10T22:34:32.514Z,52.21
2023-04-10T22:36:59.495Z,52.34
2023-04-10T22:39:26.581Z,52.45
2023-04-10T22:41:53.589Z,53.29
2023-04-10T22:44:20.540Z,53.78
2023-04-10T22:46:48.412Z,53.36
2023-04-10T22:49:18.312Z,53.63
2023-04-10T22:51:48.438Z,53.67
2023-04-10T22:54:16.183Z,53.89
2023-04-10T22:56:44.261Z,53.10
2023-04-10T22:59:11.694Z,54.20
2023-04-10T23:01:39.121Z,53.92
2023-04-10T23:04:06.244Z,53.60
2023-04-10T23:06:33.329Z,54.19
2023-04-10T23:09:00.569Z,54.20
2023-04-10T23:11:27.536Z,53.25
2023-04-10T23:13:54.547Z,52.95
2023-04-10T23:16:21.571Z,52.60
2023-04-10T23:18:50.490Z,53.02
2023-04-10T23:21:17.679Z,53.35
2023-04-10T23:23:44.791Z,53.99
2023-04-10T23:26:11.842Z,54.10
2023-04-10T23:28:39.097Z,53.57
2023-04-10T23:31:06.619Z,54.50
2023-04-10T23:33:33.666Z,54.97
2023-04-10T23:36:00.786Z,55.70
2023-04-10T23:38:27.814Z,56.43
2023-04-10T23:40:54.854Z,55.36
2023-04-10T23:43:21.959Z,55.44
2023-04-10T23:45:48.993Z,55.16
2023-04-10T23:48:16.280Z,55.44
2023-04-10T23:50:43.280Z,55.54
2023-04-10T23:53:10.862Z,55.61
2023-04-10T23:55:43.017Z,55.57
2023-04-10T23:58:10.652Z,55.82
